Latest Coastal Weather Observations for Groote Eylandt Airport

IDD60701

Issued at 12:11 pm CST Tuesday 7 July 2015 (issued every 10 minutes, with the page automatically refreshed every 10 minutes)

About coastal observations | Map of coastal stations | Coastal observations for NT | Marine services | Other Formats
Station Details ID: 014518 Name: GROOTE EYLANDT AIRPORT Lat: -13.97 Lon: 136.46 Height: 13.7 m
Data from the previous 72 hours. | See also: Recent months at Groote Eylandt Airport
Date/Time
CST
Temp

°C
Wind Pressure Rain
since 9am
mm
Weather Cloud Vis
km
Sea
Height
m
Swell
Dir
 
Speed
knots
Gust
knots
hPa Trend Height
m
Period
s
Dir
07/12:00pm 27.9 S 8 16 1014.4 - 0.0 - Cloudy 10 - - - -
07/11:30am 29.6 ESE 9 17 1014.4 - 0.0 - Partly cloudy 10 - - - -
07/11:00am 28.8 SE 7 11 1015.0 - 0.0 - - 10 - - - -
07/10:30am 27.9 SE 6 10 1015.4 - 0.0 - - 10 - - - -
07/10:00am 27.0 SE 6 11 1015.6 - 0.0 - - 10 - - - -
07/09:30am 26.3 SSE 5 9 1015.7 - 0.0 - - 10 - - - -
07/09:00am 25.0 SE 3 5 1015.5 - 0.0 - - - - - - -
07/08:30am 22.4 ESE 3 5 1015.2 - 0.0 - - - - - - -
07/08:00am 19.8 E 3 4 1014.9 - 0.0 - - - - - - -
07/07:30am 17.6 CALM 0 0 1014.6 - 0.0 - - - - - - -
07/07:00am 17.0 ESE 3 4 1014.3 - 0.0 - - - - - - -
07/06:30am 16.8 SE 3 4 1014.2 - 0.0 - - - - - - -
07/06:00am 17.2 ESE 2 3 1014.1 - 0.0 - - - - - - -
07/05:30am 17.3 ESE 3 4 1013.9 - 0.0 - - - - - - -
07/05:00am 17.4 ESE 3 4 1013.7 - 0.0 - - - - - - -
07/04:30am 17.5 SE 3 4 1013.4 - 0.0 - - - - - - -
07/04:00am 17.9 ESE 3 5 1013.2 - 0.0 - - - - - - -
07/03:30am 18.5 ESE 3 5 1013.2 - 0.0 - - - - - - -
07/03:00am 18.2 E 3 3 1013.1 - 0.0 - - - - - - -
07/02:30am 18.2 E 3 3 1013.2 - 0.0 - - - - - - -
07/02:00am 18.1 ESE 3 4 1013.4 - 0.0 - - - - - - -
07/01:30am 18.4 SE 3 4 1013.7 - 0.0 - - 10 - - - -
07/01:00am 18.2 SE 3 4 1014.1 - 0.0 - - 10 - - - -
07/12:30am 18.2 CALM 0 0 1014.2 - 0.0 - - 10 - - - -
07/12:00am 18.6 CALM 0 0 1014.2 - 0.0 - - 10 - - - -
 
Date/Time
CST
Temp

°C
Wind Pressure Rain
since 9am
mm
Weather Cloud Vis
km
Sea
Height
m
Swell
Dir
 
Speed
knots
Gust
knots
hPa Trend Height
m
Period
s
Dir
06/11:30pm 19.0 CALM 0 0 1014.3 - 0.0 - - 10 - - - -
06/11:00pm 20.0 CALM 0 0 1014.5 - 0.0 - - 10 - - - -
06/10:30pm 20.7 CALM 0 0 1014.6 - 0.0 - - 10 - - - -
06/10:00pm 21.2 CALM 0 0 1014.6 - 0.0 - - 10 - - - -
06/09:30pm 22.0 ESE 3 4 1014.7 - 0.0 - - 10 - - - -
06/09:00pm 22.6 ESE 3 5 1014.6 - 0.0 - - 10 - - - -
06/08:30pm 22.9 SE 4 5 1014.3 - 0.0 - - 10 - - - -
06/08:00pm 23.4 SE 4 6 1014.1 - 0.0 - - 10 - - - -
06/07:30pm 24.0 ESE 5 8 1013.7 - 0.0 - - 10 - - - -
06/07:00pm 24.5 ESE 7 12 1013.4 - 0.0 - - 10 - - - -
06/06:30pm 24.8 ESE 8 11 1012.9 - 0.0 - - 10 - - - -
06/06:00pm 25.4 ESE 11 17 1012.7 - 0.0 - - 10 - - - -
06/05:30pm 26.0 ESE 9 15 1012.6 - 0.0 - Partly cloudy 10 - - - -
06/05:00pm 26.7 ESE 10 15 1012.3 - 0.0 - Partly cloudy 10 - - - -
06/04:30pm 27.3 ESE 12 17 1012.2 - 0.0 - - 10 - - - -
06/04:00pm 28.1 E 12 18 1012.1 - 0.0 - - 10 - - - -
06/03:30pm 27.6 ESE 12 20 1012.1 - 0.0 - Partly cloudy 10 - - - -
06/03:00pm 29.0 E 13 19 1012.1 - 0.0 - Mostly clear 10 - - - -
06/02:30pm 28.3 ESE 13 19 1012.4 - 0.0 - - 10 - - - -
06/02:00pm 29.5 E 15 24 1012.8 - 0.0 - Partly cloudy 10 - - - -
06/01:30pm 29.2 SE 11 18 1013.3 - 0.0 - - 10 - - - -
06/01:00pm 29.5 E 12 16 1013.7 - 0.0 - - 10 - - - -
06/12:30pm 29.5 ESE 9 17 1013.9 - 0.0 - - 10 - - - -
06/12:00pm 29.2 ESE 8 14 1014.3 - 0.0 - - 10 - - - -
06/11:30am 28.8 ESE 9 13 1014.7 - 0.0 - - 10 - - - -
06/11:00am 28.2 ESE 11 15 1014.9 - 0.0 - - 10 - - - -
06/10:30am 27.8 ESE 8 12 1015.1 - 0.0 - - 10 - - - -
06/10:00am 27.9 ESE 10 15 1015.2 - 0.0 - - 10 - - - -
06/09:30am 27.0 ESE 7 11 1015.3 - 0.0 - - 10 - - - -
06/09:00am 25.7 ESE 6 9 1015.2 - 0.0 - - - - - - -
06/08:30am 24.3 E 3 5 1015.1 - 0.0 - - - - - - -
06/08:00am 21.1 CALM 0 0 1015.0 - 0.0 - - - - - - -
06/07:30am 18.6 CALM 0 0 1014.7 - 0.0 - - - - - - -
06/07:00am 17.6 CALM 0 0 1014.4 - 0.0 - - - - - - -
06/06:30am 17.9 SE 1 3 1013.9 - 0.0 - - - - - - -
06/06:00am 18.3 ESE 4 5 1013.7 - 0.0 - - - - - - -
06/05:30am 19.0 E 4 5 1013.6 - 0.0 - - - - - - -
06/05:00am 19.8 ESE 4 5 1013.7 - 0.0 - - - - - - -
06/04:30am 20.1 CALM 0 2 1013.5 - 0.0 - - - - - - -
06/04:00am 21.1 ESE 4 6 1013.5 - 0.0 - - - - - - -
06/03:30am 21.4 E 5 7 1013.5 - 0.0 - Partly cloudy - - - - -
06/03:00am 20.5 E 5 6 1013.7 - 0.0 - Mostly cloudy - - - - -
06/02:30am 20.1 E 4 5 1013.9 - 0.0 - Partly cloudy - - - - -
06/02:00am 20.0 SE 4 6 1014.1 - 0.0 - Partly cloudy - - - - -
06/01:30am 20.3 CALM 0 0 1014.4 - 0.0 - Partly cloudy - - - - -
06/01:00am 20.8 CALM 0 0 1014.7 - 0.0 - Partly cloudy - - - - -
06/12:30am 20.6 CALM 0 0 1014.8 - 0.0 - Partly cloudy - - - - -
06/12:00am 21.2 SE 3 4 1015.0 - 0.0 - Partly cloudy - - - - -
 
Date/Time
CST
Temp

°C
Wind Pressure Rain
since 9am
mm
Weather Cloud Vis
km
Sea
Height
m
Swell
Dir
 
Speed
knots
Gust
knots
hPa Trend Height
m
Period
s
Dir
05/11:30pm 21.5 SSE 2 3 1015.1 - 0.0 - Partly cloudy - - - - -
05/11:00pm 22.1 SSE 2 3 1015.2 - 0.0 - Partly cloudy - - - - -
05/10:30pm 22.5 CALM 0 0 1015.4 - 0.0 - Partly cloudy 10 - - - -
05/10:00pm 23.0 S 3 5 1015.3 - 0.0 - Cloudy 10 - - - -
05/09:30pm 23.1 S 4 6 1015.3 - 0.0 - Partly cloudy 10 - - - -
05/09:00pm 23.5 S 3 5 1015.2 - 0.0 - Cloudy 10 - - - -
05/08:30pm 23.6 S 3 4 1015.2 - 0.0 - Cloudy 10 - - - -
05/08:00pm 23.7 CALM 0 0 1015.0 - 0.0 - Cloudy 10 - - - -
05/07:30pm 23.9 ESE 3 4 1014.6 - 0.0 - Partly cloudy 10 - - - -
05/07:00pm 23.9 ESE 3 5 1014.3 - 0.0 - Cloudy 10 - - - -
05/06:30pm 23.8 SE 3 5 1014.0 - 0.0 - Partly cloudy 10 - - - -
05/06:00pm 23.8 SE 5 8 1014.0 - 0.0 - Cloudy 10 - - - -
05/05:30pm 23.8 SSE 4 5 1013.8 - 0.0 - Partly cloudy 10 - - - -
05/05:00pm 24.0 S 5 8 1013.7 - 0.0 - Cloudy 10 - - - -
05/04:30pm 25.0 S 3 6 1013.7 - 0.0 - Partly cloudy 10 - - - -
05/04:00pm 24.9 ENE 8 11 1013.7 - 0.0 - Partly cloudy 10 - - - -
05/03:30pm 24.9 SSE 5 9 1013.5 - 0.0 - Partly cloudy 10 - - - -
05/03:00pm 27.1 ESE 8 12 1013.5 - 0.0 - Mostly cloudy 10 - - - -
05/02:30pm 27.3 ESE 9 13 1013.6 - 0.0 - Partly cloudy 10 - - - -
05/02:00pm 28.0 E 9 14 1013.8 - 0.0 - Partly cloudy 10 - - - -
05/01:30pm 28.0 ENE 10 13 1014.2 - 0.0 - Partly cloudy 10 - - - -
05/01:00pm 28.2 E 11 18 1014.4 - 0.0 - Cloudy 10 - - - -
05/12:30pm 27.8 ESE 8 12 1014.7 - 0.0 - Cloudy 10 - - - -
05/12:00pm 28.5 E 9 17 1014.9 - 0.0 - Cloudy 10 - - - -
05/11:30am 28.0 E 9 15 1015.3 - 0.0 - Partly cloudy 10 - - - -
05/11:00am 27.7 ESE 9 14 1015.6 - 0.0 - Partly cloudy 10 - - - -
05/10:30am 26.8 ESE 7 11 1015.7 - 0.0 - Cloudy 10 - - - -
05/10:00am 26.3 ESE 8 13 1015.8 - 0.0 - Partly cloudy 10 - - - -
05/09:30am 26.0 ESE 7 11 1015.7 - 0.0 - Partly cloudy 10 - - - -
05/09:00am 25.6 E 5 8 1015.4 - 0.0 - Mostly cloudy - - - - -
05/08:30am 23.0 CALM 0 0 1015.3 - 0.0 - Cloudy - - - - -
05/08:00am 21.0 ESE 3 3 1015.1 - 0.0 - Partly cloudy - - - - -
05/07:30am 19.2 ESE 2 4 1014.7 - 0.0 - Cloudy - - - - -
05/07:00am 18.7 CALM 0 3 1014.5 - 0.0 - Partly cloudy - - - - -
05/06:30am 18.4 SSE 2 5 1014.3 - 0.0 - Partly cloudy - - - - -
05/06:00am 17.8 SE 1 3 1014.0 - 0.0 - Mostly cloudy - - - - -
05/05:30am 17.4 E 4 5 1014.0 - 0.0 - Partly cloudy - - - - -
05/05:00am 16.6 E 1 5 1013.8 - 0.0 - Partly cloudy - - - - -
05/04:30am 16.5 CALM 0 0 1013.9 - 0.0 - Partly cloudy - - - - -
05/04:00am 16.5 CALM 0 0 1013.8 - 0.0 - Partly cloudy - - - - -
05/03:30am 16.7 SE 2 5 1013.7 - 0.0 - Partly cloudy - - - - -
05/03:00am 17.0 CALM 0 0 1013.7 - 0.0 - - - - - - -
05/02:30am 17.3 CALM 0 0 1013.8 - 0.0 - - - - - - -
05/02:00am 17.7 CALM 0 0 1013.9 - 0.0 - - - - - - -
05/01:30am 17.9 CALM 0 0 1014.1 - 0.0 - - - - - - -
05/01:00am 18.5 CALM 0 0 1014.4 - 0.0 - - - - - - -
05/12:30am 18.7 CALM 0 0 1014.6 - 0.0 - - 10 - - - -
05/12:00am 19.2 CALM 0 0 1014.6 - 0.0 - - 10 - - - -
 
Date/Time
CST
Temp

°C
Wind Pressure Rain
since 9am
mm
Weather Cloud Vis
km
Sea
Height
m
Swell
Dir
 
Speed
knots
Gust
knots
hPa Trend Height
m
Period
s
Dir
04/11:30pm 19.9 SSE 4 5 1014.6 - 0.0 - - 10 - - - -
04/11:00pm 20.4 SSE 4 4 1014.7 - 0.0 - Partly cloudy 10 - - - -
04/10:30pm 21.0 SSE 3 4 1014.9 - 0.0 - Cloudy 10 - - - -
04/10:00pm 22.0 ESE 4 6 1014.9 - 0.0 - Partly cloudy 10 - - - -
04/09:30pm 22.2 E 5 6 1014.8 - 0.0 - Partly cloudy 10 - - - -
04/09:00pm 22.5 ESE 6 8 1014.7 - 0.0 - - 10 - - - -
04/08:30pm 22.8 ESE 6 8 1014.6 - 0.0 - - 10 - - - -
04/08:00pm 23.0 E 5 7 1014.4 - 0.0 - - 10 - - - -
04/07:30pm 23.3 E 6 7 1014.1 - 0.0 - - 10 - - - -
04/07:00pm 23.7 E 7 9 1013.6 - 0.0 - - 10 - - - -
04/06:30pm 24.0 ESE 8 13 1013.1 - 0.0 - - 10 - - - -
04/06:00pm 24.6 ESE 9 13 1012.8 - 0.0 - - 10 - - - -
04/05:30pm 25.2 ESE 9 16 1012.4 - 0.0 - - 10 - - - -
04/05:00pm 26.1 ESE 11 16 1012.1 - 0.0 - - 10 - - - -
04/04:30pm 26.6 ESE 11 15 1012.0 - 0.0 - - 10 - - - -
04/04:00pm 27.2 ESE 10 15 1011.8 - 0.0 - - 10 - - - -
04/03:30pm 27.6 ESE 8 13 1011.9 - 0.0 - Partly cloudy 10 - - - -
04/03:00pm 27.1 SE 9 17 1012.0 - 0.0 - Mostly cloudy 10 - - - -
04/02:30pm 27.3 SE 8 15 1012.1 - 0.0 - Partly cloudy 10 - - - -
04/02:00pm 28.7 ESE 7 11 1012.3 - 0.0 - - 10 - - - -
04/01:30pm 28.4 SSE 8 15 1012.7 - 0.0 - - 10 - - - -
04/01:00pm 28.2 SE 9 15 1013.4 - 0.0 - - 10 - - - -
04/12:30pm 27.4 SSE 8 14 1013.9 - 0.0 - - 10 - - - -

Other Formats:

Comma delimited format used in spreadsheet applications
http://www.bom.gov.au/fwo/IDD60701/IDD60701.94153.axf

JavaScript Object Notation format (JSON) in row-major order
http://www.bom.gov.au/fwo/IDD60701/IDD60701.94153.json